sensor_id;sensor_type;location;lat;lon;timestamp;pressure;altitude;pressure_sealevel;temperature;humidity
72855;BME280;60991;51.278;22.550;2022-07-19T00:00:22;99745.31;;;20.75;55.76
72855;BME280;60991;51.278;22.550;2022-07-19T00:01:53;99741.53;;;20.76;55.74
72855;BME280;60991;51.278;22.550;2022-07-19T00:03:23;99744.22;;;20.76;55.78
72855;BME280;60991;51.278;22.550;2022-07-19T00:04:53;99742.63;;;20.75;55.74
72855;BME280;60991;51.278;22.550;2022-07-19T00:06:24;99749.13;;;20.74;55.76
72855;BME280;60991;51.278;22.550;2022-07-19T00:07:54;99741.03;;;20.74;55.72
72855;BME280;60991;51.278;22.550;2022-07-19T00:09:25;99742.13;;;20.73;55.69
72855;BME280;60991;51.278;22.550;2022-07-19T00:10:55;99747.50;;;20.73;55.64
72855;BME280;60991;51.278;22.550;2022-07-19T00:12:26;99742.13;;;20.73;55.66
72855;BME280;60991;51.278;22.550;2022-07-19T00:13:56;99736.72;;;20.73;55.68
72855;BME280;60991;51.278;22.550;2022-07-19T00:15:27;99738.63;;;20.72;55.66
72855;BME280;60991;51.278;22.550;2022-07-19T00:16:57;99737.81;;;20.72;55.74
72855;BME280;60991;51.278;22.550;2022-07-19T00:18:28;99750.22;;;20.73;55.80
72855;BME280;60991;51.278;22.550;2022-07-19T00:19:58;99745.91;;;20.72;55.98
72855;BME280;60991;51.278;22.550;2022-07-19T00:21:28;99750.72;;;20.75;55.88
72855;BME280;60991;51.278;22.550;2022-07-19T00:22:59;99736.44;;;20.74;56.06
72855;BME280;60991;51.278;22.550;2022-07-19T00:24:29;99741.81;;;20.74;55.92
72855;BME280;60991;51.278;22.550;2022-07-19T00:26:01;99744.53;;;20.74;56.05
72855;BME280;60991;51.278;22.550;2022-07-19T00:27:32;99741.31;;;20.72;56.03
72855;BME280;60991;51.278;22.550;2022-07-19T00:29:02;99739.72;;;20.71;55.97
72855;BME280;60991;51.278;22.550;2022-07-19T00:30:33;99736.22;;;20.71;56.17
72855;BME280;60991;51.278;22.550;2022-07-19T00:32:03;99737.00;;;20.71;56.11
72855;BME280;60991;51.278;22.550;2022-07-19T00:33:33;99730.81;;;20.71;56.05
72855;BME280;60991;51.278;22.550;2022-07-19T00:35:04;99736.22;;;20.71;56.00
72855;BME280;60991;51.278;22.550;2022-07-19T00:36:35;99732.72;;;20.70;56.07
72855;BME280;60991;51.278;22.550;2022-07-19T00:39:36;99741.31;;;20.72;56.00
72855;BME280;60991;51.278;22.550;2022-07-19T00:41:06;99741.31;;;20.72;55.86
72855;BME280;60991;51.278;22.550;2022-07-19T00:42:36;99738.91;;;20.71;56.07
72855;BME280;60991;51.278;22.550;2022-07-19T00:44:08;99743.78;;;20.69;55.97
72855;BME280;60991;51.278;22.550;2022-07-19T00:45:38;99735.69;;;20.69;56.39
72855;BME280;60991;51.278;22.550;2022-07-19T00:47:09;99738.69;;;20.67;56.05
72855;BME280;60991;51.278;22.550;2022-07-19T00:48:39;99742.19;;;20.68;56.07
72855;BME280;60991;51.278;22.550;2022-07-19T00:50:10;99747.88;;;20.66;55.87
72855;BME280;60991;51.278;22.550;2022-07-19T00:51:42;99741.97;;;20.64;55.85
72855;BME280;60991;51.278;22.550;2022-07-19T00:53:13;99740.38;;;20.63;55.79
72855;BME280;60991;51.278;22.550;2022-07-19T00:54:44;99740.66;;;20.62;55.76
72855;BME280;60991;51.278;22.550;2022-07-19T00:56:16;99744.16;;;20.62;55.80
72855;BME280;60991;51.278;22.550;2022-07-19T00:57:47;99743.38;;;20.62;55.81
72855;BME280;60991;51.278;22.550;2022-07-19T00:59:18;99737.97;;;20.62;55.65
72855;BME280;60991;51.278;22.550;2022-07-19T01:00:50;99742.56;;;20.61;55.51
72855;BME280;60991;51.278;22.550;2022-07-19T01:02:20;99735.56;;;20.60;55.42
72855;BME280;60991;51.278;22.550;2022-07-19T01:03:51;99735.88;;;20.59;55.41
72855;BME280;60991;51.278;22.550;2022-07-19T01:05:22;99735.09;;;20.58;55.39
72855;BME280;60991;51.278;22.550;2022-07-19T01:06:53;99737.78;;;20.58;55.36
72855;BME280;60991;51.278;22.550;2022-07-19T01:08:23;99735.88;;;20.59;55.40
72855;BME280;60991;51.278;22.550;2022-07-19T01:09:53;99738.88;;;20.57;55.40
72855;BME280;60991;51.278;22.550;2022-07-19T01:11:23;99727.78;;;20.59;55.40
72855;BME280;60991;51.278;22.550;2022-07-19T01:12:54;99730.50;;;20.59;55.42
72855;BME280;60991;51.278;22.550;2022-07-19T01:14:24;99729.97;;;20.57;55.24
72855;BME280;60991;51.278;22.550;2022-07-19T01:15:54;99731.59;;;20.58;55.27
72855;BME280;60991;51.278;22.550;2022-07-19T01:17:25;99736.19;;;20.57;55.45
72855;BME280;60991;51.278;22.550;2022-07-19T01:18:56;99734.56;;;20.56;55.32
72855;BME280;60991;51.278;22.550;2022-07-19T01:20:26;99732.97;;;20.55;55.31
72855;BME280;60991;51.278;22.550;2022-07-19T01:21:56;99733.25;;;20.54;55.42
72855;BME280;60991;51.278;22.550;2022-07-19T01:23:27;99724.66;;;20.52;55.42
72855;BME280;60991;51.278;22.550;2022-07-19T01:24:57;99722.25;;;20.50;55.34
72855;BME280;60991;51.278;22.550;2022-07-19T01:26:27;99731.94;;;20.51;55.49
72855;BME280;60991;51.278;22.550;2022-07-19T01:27:58;99724.94;;;20.50;55.65
72855;BME280;60991;51.278;22.550;2022-07-19T01:29:29;99730.34;;;20.50;55.40
72855;BME280;60991;51.278;22.550;2022-07-19T01:30:59;99719.56;;;20.50;55.53
72855;BME280;60991;51.278;22.550;2022-07-19T01:32:29;99731.94;;;20.51;55.53
72855;BME280;60991;51.278;22.550;2022-07-19T01:33:59;99724.38;;;20.53;55.47
72855;BME280;60991;51.278;22.550;2022-07-19T01:35:30;99726.25;;;20.53;55.48
72855;BME280;60991;51.278;22.550;2022-07-19T01:37:00;99725.47;;;20.52;55.50
72855;BME280;60991;51.278;22.550;2022-07-19T01:38:30;99724.38;;;20.53;55.50
72855;BME280;60991;51.278;22.550;2022-07-19T01:40:06;99722.19;;;20.55;55.57
72855;BME280;60991;51.278;22.550;2022-07-19T01:41:37;99733.78;;;20.56;55.40
72855;BME280;60991;51.278;22.550;2022-07-19T01:43:07;99726.47;;;20.56;55.52
72855;BME280;60991;51.278;22.550;2022-07-19T01:44:37;99720.28;;;20.56;55.54
72855;BME280;60991;51.278;22.550;2022-07-19T01:46:08;99720.28;;;20.56;55.49
72855;BME280;60991;51.278;22.550;2022-07-19T01:47:39;99731.59;;;20.58;55.45
72855;BME280;60991;51.278;22.550;2022-07-19T01:49:09;99727.78;;;20.59;55.61
72855;BME280;60991;51.278;22.550;2022-07-19T01:50:40;99720.19;;;20.61;55.47
72855;BME280;60991;51.278;22.550;2022-07-19T01:52:10;99733.19;;;20.59;55.54
72855;BME280;60991;51.278;22.550;2022-07-19T01:53:40;99730.78;;;20.57;55.40
72855;BME280;60991;51.278;22.550;2022-07-19T01:55:11;99726.47;;;20.56;55.39
72855;BME280;60991;51.278;22.550;2022-07-19T01:56:42;99724.88;;;20.55;55.55
72855;BME280;60991;51.278;22.550;2022-07-19T01:58:12;99723.28;;;20.54;55.41
72855;BME280;60991;51.278;22.550;2022-07-19T01:59:43;99717.38;;;20.52;55.46
72855;BME280;60991;51.278;22.550;2022-07-19T02:01:13;99717.66;;;20.51;55.44
72855;BME280;60991;51.278;22.550;2022-07-19T02:02:43;99717.66;;;20.51;55.52
72855;BME280;60991;51.278;22.550;2022-07-19T02:04:13;99715.75;;;20.51;55.63
72855;BME280;60991;51.278;22.550;2022-07-19T02:05:44;99720.88;;;20.53;55.67
72855;BME280;60991;51.278;22.550;2022-07-19T02:07:14;99721.38;;;20.55;55.68
72855;BME280;60991;51.278;22.550;2022-07-19T02:08:44;99722.19;;;20.55;55.70
72855;BME280;60991;51.278;22.550;2022-07-19T02:10:16;99727.28;;;20.57;55.77
72855;BME280;60991;51.278;22.550;2022-07-19T02:11:46;99729.19;;;20.56;55.61
72855;BME280;60991;51.278;22.550;2022-07-19T02:13:17;99723.78;;;20.56;55.54
72855;BME280;60991;51.278;22.550;2022-07-19T02:14:47;99726.78;;;20.55;55.61
72855;BME280;60991;51.278;22.550;2022-07-19T02:16:17;99723.28;;;20.54;55.92
72855;BME280;60991;51.278;22.550;2022-07-19T02:17:48;99719.78;;;20.54;55.72
72855;BME280;60991;51.278;22.550;2022-07-19T02:19:18;99724.06;;;20.55;55.83
72855;BME280;60991;51.278;22.550;2022-07-19T02:20:48;99717.38;;;20.52;55.64
72855;BME280;60991;51.278;22.550;2022-07-19T02:22:19;99724.38;;;20.53;55.81
72855;BME280;60991;51.278;22.550;2022-07-19T02:23:49;99716.56;;;20.52;55.88
72855;BME280;60991;51.278;22.550;2022-07-19T02:25:19;99718.47;;;20.51;56.04
72855;BME280;60991;51.278;22.550;2022-07-19T02:26:50;99722.25;;;20.50;55.98
72855;BME280;60991;51.278;22.550;2022-07-19T02:28:20;99717.94;;;20.49;55.88
72855;BME280;60991;51.278;22.550;2022-07-19T02:29:50;99722.53;;;20.49;56.01
72855;BME280;60991;51.278;22.550;2022-07-19T02:31:22;99731.16;;;20.51;56.06
72855;BME280;60991;51.278;22.550;2022-07-19T02:32:53;99724.66;;;20.52;56.03
72855;BME280;60991;51.278;22.550;2022-07-19T02:34:23;99730.84;;;20.52;56.03
72855;BME280;60991;51.278;22.550;2022-07-19T02:35:53;99729.25;;;20.51;55.94
72855;BME280;60991;51.278;22.550;2022-07-19T02:37:24;99727.66;;;20.50;56.19
72855;BME280;60991;51.278;22.550;2022-07-19T02:38:54;99728.44;;;20.51;56.17
72855;BME280;60991;51.278;22.550;2022-07-19T02:40:24;99722.53;;;20.49;56.02
72855;BME280;60991;51.278;22.550;2022-07-19T02:41:55;99731.72;;;20.48;56.16
72855;BME280;60991;51.278;22.550;2022-07-19T02:43:25;99725.03;;;20.45;56.14
72855;BME280;60991;51.278;22.550;2022-07-19T02:44:56;99723.13;;;20.46;56.24
72855;BME280;60991;51.278;22.550;2022-07-19T02:46:26;99722.84;;;20.47;56.28
72855;BME280;60991;51.278;22.550;2022-07-19T02:47:56;99726.03;;;20.49;56.31
72855;BME280;60991;51.278;22.550;2022-07-19T02:49:26;99727.34;;;20.52;56.23
72855;BME280;60991;51.278;22.550;2022-07-19T02:50:57;99723.56;;;20.53;56.28
72855;BME280;60991;51.278;22.550;2022-07-19T02:52:29;99724.06;;;20.55;56.29
72855;BME280;60991;51.278;22.550;2022-07-19T02:53:59;99721.38;;;20.55;56.12
72855;BME280;60991;51.278;22.550;2022-07-19T02:55:29;99722.97;;;20.56;56.22
72855;BME280;60991;51.278;22.550;2022-07-19T02:57:00;99724.06;;;20.55;56.12
72855;BME280;60991;51.278;22.550;2022-07-19T02:58:30;99725.16;;;20.54;56.54
72855;BME280;60991;51.278;22.550;2022-07-19T03:00:01;99727.06;;;20.53;56.21
72855;BME280;60991;51.278;22.550;2022-07-19T03:01:31;99725.16;;;20.54;56.25
72855;BME280;60991;51.278;22.550;2022-07-19T03:03:02;99725.16;;;20.54;56.20
72855;BME280;60991;51.278;22.550;2022-07-19T03:04:32;99723.56;;;20.53;56.18
72855;BME280;60991;51.278;22.550;2022-07-19T03:06:03;99723.56;;;20.53;56.14
72855;BME280;60991;51.278;22.550;2022-07-19T03:07:33;99723.84;;;20.51;56.34
72855;BME280;60991;51.278;22.550;2022-07-19T03:09:03;99727.34;;;20.52;56.34
72855;BME280;60991;51.278;22.550;2022-07-19T03:10:34;99717.66;;;20.51;56.28
72855;BME280;60991;51.278;22.550;2022-07-19T03:12:05;99728.75;;;20.49;56.42
72855;BME280;60991;51.278;22.550;2022-07-19T03:13:35;99733.03;;;20.50;56.51
72855;BME280;60991;51.278;22.550;2022-07-19T03:15:06;99730.34;;;20.50;56.39
72855;BME280;60991;51.278;22.550;2022-07-19T03:16:36;99735.44;;;20.52;56.46
72855;BME280;60991;51.278;22.550;2022-07-19T03:18:07;99737.34;;;20.51;56.45
72855;BME280;60991;51.278;22.550;2022-07-19T03:19:37;99737.63;;;20.50;56.52
72855;BME280;60991;51.278;22.550;2022-07-19T03:21:07;99736.84;;;20.49;56.41
72855;BME280;60991;51.278;22.550;2022-07-19T03:22:37;99735.22;;;20.48;56.49
72855;BME280;60991;51.278;22.550;2022-07-19T03:24:08;99737.13;;;20.48;56.55
72855;BME280;60991;51.278;22.550;2022-07-19T03:25:38;99742.50;;;20.48;56.53
72855;BME280;60991;51.278;22.550;2022-07-19T03:27:09;99737.13;;;20.48;56.46
72855;BME280;60991;51.278;22.550;2022-07-19T03:28:39;99735.00;;;20.45;56.65
72855;BME280;60991;51.278;22.550;2022-07-19T03:30:09;99743.09;;;20.45;56.63
72855;BME280;60991;51.278;22.550;2022-07-19T03:31:40;99738.50;;;20.45;56.77
72855;BME280;60991;51.278;22.550;2022-07-19T03:33:11;99736.63;;;20.46;56.74
72855;BME280;60991;51.278;22.550;2022-07-19T03:34:41;99738.22;;;20.47;56.84
72855;BME280;60991;51.278;22.550;2022-07-19T03:36:11;99736.31;;;20.47;56.63
72855;BME280;60991;51.278;22.550;2022-07-19T03:37:41;99738.50;;;20.45;56.81
72855;BME280;60991;51.278;22.550;2022-07-19T03:39:12;99744.19;;;20.44;56.84
72855;BME280;60991;51.278;22.550;2022-07-19T03:40:43;99739.59;;;20.44;56.78
72855;BME280;60991;51.278;22.550;2022-07-19T03:42:14;99733.69;;;20.42;56.89
72855;BME280;60991;51.278;22.550;2022-07-19T03:43:44;99728.31;;;20.42;56.92
72855;BME280;60991;51.278;22.550;2022-07-19T03:45:15;99734.78;;;20.41;57.14
72855;BME280;60991;51.278;22.550;2022-07-19T03:46:45;99736.72;;;20.41;57.12
72855;BME280;60991;51.278;22.550;2022-07-19T03:48:15;99740.69;;;20.43;57.28
72855;BME280;60991;51.278;22.550;2022-07-19T03:49:46;99740.69;;;20.43;57.09
72855;BME280;60991;51.278;22.550;2022-07-19T03:51:16;99740.97;;;20.42;57.10
72855;BME280;60991;51.278;22.550;2022-07-19T03:52:46;99739.09;;;20.42;57.10
72855;BME280;60991;51.278;22.550;2022-07-19T03:54:17;99738.28;;;20.42;57.24
72855;BME280;60991;51.278;22.550;2022-07-19T03:55:47;99735.09;;;20.39;57.19
72855;BME280;60991;51.278;22.550;2022-07-19T03:57:17;99740.78;;;20.38;57.36
72855;BME280;60991;51.278;22.550;2022-07-19T03:58:48;99739.19;;;20.37;57.30
72855;BME280;60991;51.278;22.550;2022-07-19T04:00:18;99738.38;;;20.36;57.37
72855;BME280;60991;51.278;22.550;2022-07-19T04:01:50;99733.78;;;20.37;57.33
72855;BME280;60991;51.278;22.550;2022-07-19T04:03:20;99738.66;;;20.35;57.55
72855;BME280;60991;51.278;22.550;2022-07-19T04:04:50;99739.44;;;20.35;57.52
72855;BME280;60991;51.278;22.550;2022-07-19T04:06:21;99736.25;;;20.33;57.65
72855;BME280;60991;51.278;22.550;2022-07-19T04:07:51;99733.53;;;20.33;57.60
72855;BME280;60991;51.278;22.550;2022-07-19T04:09:21;99728.44;;;20.32;57.72
72855;BME280;60991;51.278;22.550;2022-07-19T04:10:51;99738.94;;;20.33;57.66
72855;BME280;60991;51.278;22.550;2022-07-19T04:12:22;99733.53;;;20.33;57.67
72855;BME280;60991;51.278;22.550;2022-07-19T04:13:52;99736.53;;;20.32;57.79
72855;BME280;60991;51.278;22.550;2022-07-19T04:15:22;99737.63;;;20.31;57.78
72855;BME280;60991;51.278;22.550;2022-07-19T04:16:52;99737.91;;;20.29;57.77
72855;BME280;60991;51.278;22.550;2022-07-19T04:18:23;99740.31;;;20.31;57.86
72855;BME280;60991;51.278;22.550;2022-07-19T04:19:53;99734.13;;;20.30;57.78
72855;BME280;60991;51.278;22.550;2022-07-19T04:21:23;99736.81;;;20.30;57.97
72855;BME280;60991;51.278;22.550;2022-07-19T04:22:54;99741.91;;;20.32;57.91
72855;BME280;60991;51.278;22.550;2022-07-19T04:24:24;99748.13;;;20.32;57.77
72855;BME280;60991;51.278;22.550;2022-07-19T04:25:54;99752.72;;;20.32;57.93
72855;BME280;60991;51.278;22.550;2022-07-19T04:27:24;99747.31;;;20.32;58.19
72855;BME280;60991;51.278;22.550;2022-07-19T04:28:55;99748.13;;;20.32;58.23
72855;BME280;60991;51.278;22.550;2022-07-19T04:30:25;99748.63;;;20.34;58.14
72855;BME280;60991;51.278;22.550;2022-07-19T04:31:55;99751.31;;;20.34;58.07
72855;BME280;60991;51.278;22.550;2022-07-19T04:33:26;99741.63;;;20.33;57.96
72855;BME280;60991;51.278;22.550;2022-07-19T04:34:56;99745.94;;;20.34;58.22
72855;BME280;60991;51.278;22.550;2022-07-19T04:36:26;99750.25;;;20.35;58.18
72855;BME280;60991;51.278;22.550;2022-07-19T04:37:57;99746.22;;;20.33;58.12
72855;BME280;60991;51.278;22.550;2022-07-19T04:39:27;99745.13;;;20.34;58.27
72855;BME280;60991;51.278;22.550;2022-07-19T04:40:57;99750.53;;;20.34;58.23
72855;BME280;60991;51.278;22.550;2022-07-19T04:42:28;99743.53;;;20.33;58.14
72855;BME280;60991;51.278;22.550;2022-07-19T04:43:58;99741.63;;;20.33;58.16
72855;BME280;60991;51.278;22.550;2022-07-19T04:45:28;99739.75;;;20.34;58.09
72855;BME280;60991;51.278;22.550;2022-07-19T04:46:59;99747.03;;;20.33;58.09
72855;BME280;60991;51.278;22.550;2022-07-19T04:48:29;99741.63;;;20.33;57.98
72855;BME280;60991;51.278;22.550;2022-07-19T04:50:00;99745.94;;;20.34;57.86
72855;BME280;60991;51.278;22.550;2022-07-19T04:51:30;99743.25;;;20.34;57.99
72855;BME280;60991;51.278;22.550;2022-07-19T04:53:00;99752.13;;;20.35;57.92
72855;BME280;60991;51.278;22.550;2022-07-19T04:54:31;99749.44;;;20.35;57.88
72855;BME280;60991;51.278;22.550;2022-07-19T04:56:01;99754.03;;;20.34;57.89
72855;BME280;60991;51.278;22.550;2022-07-19T04:57:31;99745.94;;;20.34;58.03
72855;BME280;60991;51.278;22.550;2022-07-19T04:59:02;99745.66;;;20.36;58.34
72855;BME280;60991;51.278;22.550;2022-07-19T05:00:32;99751.28;;;20.39;58.01
72855;BME280;60991;51.278;22.550;2022-07-19T05:02:02;99744.81;;;20.41;57.84
72855;BME280;60991;51.278;22.550;2022-07-19T05:03:33;99748.78;;;20.43;57.87
72855;BME280;60991;51.278;22.550;2022-07-19T05:05:04;99752.00;;;20.45;57.96
72855;BME280;60991;51.278;22.550;2022-07-19T05:06:34;99744.13;;;20.49;57.95
72855;BME280;60991;51.278;22.550;2022-07-19T05:08:05;99743.84;;;20.50;57.97
72855;BME280;60991;51.278;22.550;2022-07-19T05:09:35;99754.03;;;20.53;57.78
72855;BME280;60991;51.278;22.550;2022-07-19T05:11:05;99739.47;;;20.54;57.80
72855;BME280;60991;51.278;22.550;2022-07-19T05:12:36;99749.94;;;20.56;57.87
72855;BME280;60991;51.278;22.550;2022-07-19T05:14:06;99746.16;;;20.57;57.82
72855;BME280;60991;51.278;22.550;2022-07-19T05:15:36;99738.88;;;20.57;57.96
72855;BME280;60991;51.278;22.550;2022-07-19T05:17:06;99741.56;;;20.57;57.90
72855;BME280;60991;51.278;22.550;2022-07-19T05:18:37;99747.75;;;20.58;57.77
72855;BME280;60991;51.278;22.550;2022-07-19T05:20:08;99739.66;;;20.58;57.74
72855;BME280;60991;51.278;22.550;2022-07-19T05:21:38;99743.97;;;20.59;57.70
72855;BME280;60991;51.278;22.550;2022-07-19T05:23:08;99744.47;;;20.61;57.75
72855;BME280;60991;51.278;22.550;2022-07-19T05:24:39;99749.25;;;20.64;57.69
72855;BME280;60991;51.278;22.550;2022-07-19T05:26:09;99754.38;;;20.65;57.80
72855;BME280;60991;51.278;22.550;2022-07-19T05:27:39;99744.38;;;20.66;57.87
72855;BME280;60991;51.278;22.550;2022-07-19T05:29:09;99745.19;;;20.66;57.72
72855;BME280;60991;51.278;22.550;2022-07-19T05:30:40;99744.38;;;20.66;57.79
72855;BME280;60991;51.278;22.550;2022-07-19T05:32:10;99744.97;;;20.63;57.72
72855;BME280;60991;51.278;22.550;2022-07-19T05:33:41;99743.88;;;20.64;57.72
72855;BME280;60991;51.278;22.550;2022-07-19T05:35:11;99748.16;;;20.65;57.71
72855;BME280;60991;51.278;22.550;2022-07-19T05:36:41;99745.47;;;20.65;57.81
72855;BME280;60991;51.278;22.550;2022-07-19T05:38:12;99744.38;;;20.66;57.84
72855;BME280;60991;51.278;22.550;2022-07-19T05:39:42;99740.88;;;20.65;57.90
72855;BME280;60991;51.278;22.550;2022-07-19T05:41:12;99741.16;;;20.64;58.03
72855;BME280;60991;51.278;22.550;2022-07-19T05:42:43;99744.16;;;20.62;58.00
72855;BME280;60991;51.278;22.550;2022-07-19T05:44:13;99736.38;;;20.61;57.62
72855;BME280;60991;51.278;22.550;2022-07-19T05:45:43;99733.47;;;20.57;57.82
72855;BME280;60991;51.278;22.550;2022-07-19T05:47:13;99736.19;;;20.57;57.83
72855;BME280;60991;51.278;22.550;2022-07-19T05:48:45;99730.28;;;20.55;57.77
72855;BME280;60991;51.278;22.550;2022-07-19T05:50:15;99727.06;;;20.53;57.66
72855;BME280;60991;51.278;22.550;2022-07-19T05:51:45;99728.97;;;20.53;57.88
72855;BME280;60991;51.278;22.550;2022-07-19T05:53:16;99727.06;;;20.53;57.84
72855;BME280;60991;51.278;22.550;2022-07-19T05:54:46;99727.56;;;20.55;57.93
72855;BME280;60991;51.278;22.550;2022-07-19T05:56:16;99722.97;;;20.56;57.73
72855;BME280;60991;51.278;22.550;2022-07-19T05:57:47;99723.78;;;20.56;57.67
72855;BME280;60991;51.278;22.550;2022-07-19T05:59:17;99719.47;;;20.55;57.49
72855;BME280;60991;51.278;22.550;2022-07-19T06:00:47;99718.69;;;20.55;57.71
72855;BME280;60991;51.278;22.550;2022-07-19T06:02:17;99722.69;;;20.57;58.00
72855;BME280;60991;51.278;22.550;2022-07-19T06:03:51;99707.78;;;20.60;58.07
72855;BME280;60991;51.278;22.550;2022-07-19T06:05:22;99718.28;;;20.61;58.12
72855;BME280;60991;51.278;22.550;2022-07-19T06:06:52;99711.78;;;20.62;58.12
72855;BME280;60991;51.278;22.550;2022-07-19T06:08:22;99714.72;;;20.66;58.35
72855;BME280;60991;51.278;22.550;2022-07-19T06:09:53;99718.41;;;20.70;58.44
72855;BME280;60991;51.278;22.550;2022-07-19T06:11:23;99720.81;;;20.71;58.17
72855;BME280;60991;51.278;22.550;2022-07-19T06:12:54;99720.53;;;20.73;57.79
72855;BME280;60991;51.278;22.550;2022-07-19T06:14:24;99722.13;;;20.74;57.91
72855;BME280;60991;51.278;22.550;2022-07-19T06:15:54;99718.03;;;20.77;57.62
72855;BME280;60991;51.278;22.550;2022-07-19T06:17:25;99719.66;;;20.78;57.33
72855;BME280;60991;51.278;22.550;2022-07-19T06:18:55;99712.03;;;20.80;57.48
72855;BME280;60991;51.278;22.550;2022-07-19T06:20:25;99720.94;;;20.80;57.32
72855;BME280;60991;51.278;22.550;2022-07-19T06:21:55;99719.84;;;20.81;57.26
72855;BME280;60991;51.278;22.550;2022-07-19T06:23:26;99719.53;;;20.83;57.13
72855;BME280;60991;51.278;22.550;2022-07-19T06:24:56;99722.75;;;20.85;57.22
72855;BME280;60991;51.278;22.550;2022-07-19T06:26:27;99720.03;;;20.85;57.14
72855;BME280;60991;51.278;22.550;2022-07-19T06:27:57;99715.16;;;20.87;57.30
72855;BME280;60991;51.278;22.550;2022-07-19T06:29:28;99714.88;;;20.88;57.21
72855;BME280;60991;51.278;22.550;2022-07-19T06:30:58;99720.78;;;20.90;57.07
72855;BME280;60991;51.278;22.550;2022-07-19T06:32:28;99720.47;;;20.92;56.96
72855;BME280;60991;51.278;22.550;2022-07-19T06:33:59;99725.88;;;20.92;56.87
72855;BME280;60991;51.278;22.550;2022-07-19T06:35:29;99722.06;;;20.93;56.87
72855;BME280;60991;51.278;22.550;2022-07-19T06:36:59;99727.97;;;20.95;56.60
72855;BME280;60991;51.278;22.550;2022-07-19T06:38:29;99726.09;;;20.95;56.61
72855;BME280;60991;51.278;22.550;2022-07-19T06:40:00;99727.19;;;20.94;56.35
72855;BME280;60991;51.278;22.550;2022-07-19T06:41:30;99719.09;;;20.94;56.25
72855;BME280;60991;51.278;22.550;2022-07-19T06:43:00;99720.19;;;20.93;56.20
72855;BME280;60991;51.278;22.550;2022-07-19T06:44:31;99720.19;;;20.93;56.08
72855;BME280;60991;51.278;22.550;2022-07-19T06:46:01;99717.47;;;20.93;56.60
72855;BME280;60991;51.278;22.550;2022-07-19T06:47:32;99721.50;;;20.96;56.74
72855;BME280;60991;51.278;22.550;2022-07-19T06:49:02;99720.34;;;20.97;56.76
72855;BME280;60991;51.278;22.550;2022-07-19T06:50:33;99726.25;;;20.99;57.02
72855;BME280;60991;51.278;22.550;2022-07-19T06:52:03;99722.97;;;21.02;57.04
72855;BME280;60991;51.278;22.550;2022-07-19T06:53:34;99724.28;;;21.04;56.75
72855;BME280;60991;51.278;22.550;2022-07-19T06:55:05;99721.00;;;21.07;56.91
72855;BME280;60991;51.278;22.550;2022-07-19T06:56:35;99723.09;;;21.11;57.00
72855;BME280;60991;51.278;22.550;2022-07-19T06:58:05;99720.59;;;21.14;56.81
72855;BME280;60991;51.278;22.550;2022-07-19T06:59:36;99729.19;;;21.16;56.86
72855;BME280;60991;51.278;22.550;2022-07-19T07:01:06;99725.09;;;21.19;56.24
72855;BME280;60991;51.278;22.550;2022-07-19T07:02:37;99723.19;;;21.19;56.38
72855;BME280;60991;51.278;22.550;2022-07-19T07:04:08;99724.53;;;21.22;56.07
72855;BME280;60991;51.278;22.550;2022-07-19T07:05:38;99710.72;;;21.23;56.04
72855;BME280;60991;51.278;22.550;2022-07-19T07:07:08;99723.13;;;21.24;55.91
72855;BME280;60991;51.278;22.550;2022-07-19T07:08:38;99719.34;;;21.25;55.87
72855;BME280;60991;51.278;22.550;2022-07-19T07:10:10;99725.25;;;21.27;56.10
72855;BME280;60991;51.278;22.550;2022-07-19T07:11:40;99719.53;;;21.29;56.01
72855;BME280;60991;51.278;22.550;2022-07-19T07:13:11;99721.94;;;21.30;55.82
72855;BME280;60991;51.278;22.550;2022-07-19T07:14:41;99723.25;;;21.33;56.04
72855;BME280;60991;51.278;22.550;2022-07-19T07:16:11;99723.72;;;21.35;55.84
72855;BME280;60991;51.278;22.550;2022-07-19T07:17:42;99722.31;;;21.37;55.64
72855;BME280;60991;51.278;22.550;2022-07-19T07:19:12;99718.22;;;21.40;55.33
72855;BME280;60991;51.278;22.550;2022-07-19T07:20:43;99714.44;;;21.41;55.58
72855;BME280;60991;51.278;22.550;2022-07-19T07:22:13;99712.53;;;21.41;55.41
72855;BME280;60991;51.278;22.550;2022-07-19T07:23:44;99720.84;;;21.45;55.67
72855;BME280;60991;51.278;22.550;2022-07-19T07:25:14;99720.53;;;21.47;55.59
72855;BME280;60991;51.278;22.550;2022-07-19T07:26:44;99726.44;;;21.49;55.75
72855;BME280;60991;51.278;22.550;2022-07-19T07:28:15;99726.94;;;21.51;55.77
72855;BME280;60991;51.278;22.550;2022-07-19T07:29:45;99729.34;;;21.52;55.86
72855;BME280;60991;51.278;22.550;2022-07-19T07:31:15;99730.91;;;21.53;55.78
72855;BME280;60991;51.278;22.550;2022-07-19T07:32:46;99722.22;;;21.56;55.76
72855;BME280;60991;51.278;22.550;2022-07-19T07:34:16;99730.03;;;21.58;56.03
72855;BME280;60991;51.278;22.550;2022-07-19T07:35:47;99731.63;;;21.59;55.78
72855;BME280;60991;51.278;22.550;2022-07-19T07:37:17;99725.13;;;21.60;55.97
72855;BME280;60991;51.278;22.550;2022-07-19T07:38:48;99731.03;;;21.62;55.83
72855;BME280;60991;51.278;22.550;2022-07-19T07:40:18;99733.44;;;21.63;56.01
72855;BME280;60991;51.278;22.550;2022-07-19T07:41:49;99728.53;;;21.65;56.11
72855;BME280;60991;51.278;22.550;2022-07-19T07:43:19;99728.22;;;21.67;55.82
72855;BME280;60991;51.278;22.550;2022-07-19T07:44:49;99729.53;;;21.69;55.60
72855;BME280;60991;51.278;22.550;2022-07-19T07:46:20;99739.25;;;21.70;55.79
72855;BME280;60991;51.278;22.550;2022-07-19T07:47:50;99732.72;;;21.71;55.52
72855;BME280;60991;51.278;22.550;2022-07-19T07:49:20;99730.50;;;21.73;55.75
72855;BME280;60991;51.278;22.550;2022-07-19T07:50:50;99734.00;;;21.74;55.59
72855;BME280;60991;51.278;22.550;2022-07-19T07:52:21;99725.59;;;21.75;55.33
72855;BME280;60991;51.278;22.550;2022-07-19T07:53:51;99725.81;;;21.79;55.32